sensor_id;sensor_type;location;lat;lon;timestamp;P1;durP1;ratioP1;P2;durP2;ratioP2
56405;SDS011;42305;51.444;-2.584;2022-07-12T00:01:19;1.50;;;1.50;;
56405;SDS011;42305;51.444;-2.584;2022-07-12T00:03:45;1.50;;;1.50;;
56405;SDS011;42305;51.444;-2.584;2022-07-12T00:06:11;1.60;;;1.60;;
56405;SDS011;42305;51.444;-2.584;2022-07-12T00:08:37;1.70;;;1.70;;
56405;SDS011;42305;51.444;-2.584;2022-07-12T00:11:06;1.80;;;1.80;;
56405;SDS011;42305;51.444;-2.584;2022-07-12T00:13:32;1.60;;;1.60;;
56405;SDS011;42305;51.444;-2.584;2022-07-12T00:16:01;1.40;;;1.40;;
56405;SDS011;42305;51.444;-2.584;2022-07-12T00:18:27;1.80;;;1.80;;
56405;SDS011;42305;51.444;-2.584;2022-07-12T00:20:53;1.50;;;1.50;;
56405;SDS011;42305;51.444;-2.584;2022-07-12T00:23:19;1.80;;;1.80;;
56405;SDS011;42305;51.444;-2.584;2022-07-12T00:25:46;1.80;;;1.80;;
56405;SDS011;42305;51.444;-2.584;2022-07-12T00:28:12;1.50;;;1.50;;
56405;SDS011;42305;51.444;-2.584;2022-07-12T00:30:38;1.50;;;1.50;;
56405;SDS011;42305;51.444;-2.584;2022-07-12T00:33:04;1.50;;;1.50;;
56405;SDS011;42305;51.444;-2.584;2022-07-12T00:35:30;2.42;;;2.05;;
56405;SDS011;42305;51.444;-2.584;2022-07-12T00:37:57;1.90;;;1.90;;
56405;SDS011;42305;51.444;-2.584;2022-07-12T00:40:23;1.90;;;1.90;;
56405;SDS011;42305;51.444;-2.584;2022-07-12T00:42:49;1.40;;;1.40;;
56405;SDS011;42305;51.444;-2.584;2022-07-12T00:45:15;1.63;;;1.63;;
56405;SDS011;42305;51.444;-2.584;2022-07-12T00:47:44;1.98;;;1.98;;
56405;SDS011;42305;51.444;-2.584;2022-07-12T00:50:14;2.15;;;2.15;;
56405;SDS011;42305;51.444;-2.584;2022-07-12T00:52:41;2.28;;;2.28;;
56405;SDS011;42305;51.444;-2.584;2022-07-12T00:55:09;1.90;;;1.90;;
56405;SDS011;42305;51.444;-2.584;2022-07-12T00:57:36;2.20;;;2.20;;
56405;SDS011;42305;51.444;-2.584;2022-07-12T01:00:05;1.60;;;1.60;;
56405;SDS011;42305;51.444;-2.584;2022-07-12T01:02:32;1.70;;;1.70;;
56405;SDS011;42305;51.444;-2.584;2022-07-12T01:04:58;1.90;;;1.90;;
56405;SDS011;42305;51.444;-2.584;2022-07-12T01:07:25;1.60;;;1.60;;
56405;SDS011;42305;51.444;-2.584;2022-07-12T01:09:52;1.70;;;1.70;;
56405;SDS011;42305;51.444;-2.584;2022-07-12T01:12:19;1.90;;;1.90;;
56405;SDS011;42305;51.444;-2.584;2022-07-12T01:14:46;1.60;;;1.60;;
56405;SDS011;42305;51.444;-2.584;2022-07-12T01:17:13;1.70;;;1.70;;
56405;SDS011;42305;51.444;-2.584;2022-07-12T01:19:39;1.63;;;1.63;;
56405;SDS011;42305;51.444;-2.584;2022-07-12T01:22:08;1.50;;;1.50;;
56405;SDS011;42305;51.444;-2.584;2022-07-12T01:24:34;1.60;;;1.60;;
56405;SDS011;42305;51.444;-2.584;2022-07-12T01:27:03;1.60;;;1.60;;
56405;SDS011;42305;51.444;-2.584;2022-07-12T01:29:30;1.80;;;1.80;;
56405;SDS011;42305;51.444;-2.584;2022-07-12T01:31:59;1.80;;;1.80;;
56405;SDS011;42305;51.444;-2.584;2022-07-12T01:34:46;1.80;;;1.80;;
56405;SDS011;42305;51.444;-2.584;2022-07-12T01:37:16;2.15;;;2.15;;
56405;SDS011;42305;51.444;-2.584;2022-07-12T01:39:42;1.80;;;1.80;;
56405;SDS011;42305;51.444;-2.584;2022-07-12T01:42:08;1.75;;;1.75;;
56405;SDS011;42305;51.444;-2.584;2022-07-12T01:44:35;1.60;;;1.60;;
56405;SDS011;42305;51.444;-2.584;2022-07-12T01:47:01;1.60;;;1.60;;
56405;SDS011;42305;51.444;-2.584;2022-07-12T01:49:27;1.88;;;1.88;;
56405;SDS011;42305;51.444;-2.584;2022-07-12T01:51:56;1.80;;;1.80;;
56405;SDS011;42305;51.444;-2.584;2022-07-12T01:54:26;2.78;;;2.75;;
56405;SDS011;42305;51.444;-2.584;2022-07-12T01:56:52;1.88;;;1.88;;
56405;SDS011;42305;51.444;-2.584;2022-07-12T01:59:18;1.73;;;1.73;;
56405;SDS011;42305;51.444;-2.584;2022-07-12T02:01:45;1.60;;;1.60;;
56405;SDS011;42305;51.444;-2.584;2022-07-12T02:04:11;1.95;;;1.95;;
56405;SDS011;42305;51.444;-2.584;2022-07-12T02:06:38;2.00;;;2.00;;
56405;SDS011;42305;51.444;-2.584;2022-07-12T02:09:04;1.95;;;1.95;;
56405;SDS011;42305;51.444;-2.584;2022-07-12T02:11:31;1.60;;;1.60;;
56405;SDS011;42305;51.444;-2.584;2022-07-12T02:13:57;1.90;;;1.90;;
56405;SDS011;42305;51.444;-2.584;2022-07-12T02:16:23;1.73;;;1.73;;
56405;SDS011;42305;51.444;-2.584;2022-07-12T02:18:49;2.17;;;2.17;;
56405;SDS011;42305;51.444;-2.584;2022-07-12T02:21:15;2.20;;;2.20;;
56405;SDS011;42305;51.444;-2.584;2022-07-12T02:23:41;2.25;;;2.25;;
56405;SDS011;42305;51.444;-2.584;2022-07-12T02:26:07;1.80;;;1.80;;
56405;SDS011;42305;51.444;-2.584;2022-07-12T02:28:33;1.70;;;1.70;;
56405;SDS011;42305;51.444;-2.584;2022-07-12T02:30:59;1.70;;;1.70;;
56405;SDS011;42305;51.444;-2.584;2022-07-12T02:33:25;2.10;;;2.10;;
56405;SDS011;42305;51.444;-2.584;2022-07-12T02:35:52;1.60;;;1.60;;
56405;SDS011;42305;51.444;-2.584;2022-07-12T02:38:18;1.70;;;1.70;;
56405;SDS011;42305;51.444;-2.584;2022-07-12T02:40:46;1.70;;;1.70;;
56405;SDS011;42305;51.444;-2.584;2022-07-12T02:43:21;2.00;;;2.00;;
56405;SDS011;42305;51.444;-2.584;2022-07-12T02:48:34;2.00;;;2.00;;
56405;SDS011;42305;51.444;-2.584;2022-07-12T02:51:00;2.40;;;2.40;;
56405;SDS011;42305;51.444;-2.584;2022-07-12T02:53:26;2.13;;;2.13;;
56405;SDS011;42305;51.444;-2.584;2022-07-12T02:55:53;2.20;;;2.20;;
56405;SDS011;42305;51.444;-2.584;2022-07-12T02:58:19;1.80;;;1.80;;
56405;SDS011;42305;51.444;-2.584;2022-07-12T03:00:45;2.40;;;2.40;;
56405;SDS011;42305;51.444;-2.584;2022-07-12T03:03:11;1.77;;;1.77;;
56405;SDS011;42305;51.444;-2.584;2022-07-12T03:05:40;2.13;;;2.13;;
56405;SDS011;42305;51.444;-2.584;2022-07-12T03:08:06;2.00;;;2.00;;
56405;SDS011;42305;51.444;-2.584;2022-07-12T03:10:33;2.30;;;2.30;;
56405;SDS011;42305;51.444;-2.584;2022-07-12T03:12:59;1.70;;;1.70;;
56405;SDS011;42305;51.444;-2.584;2022-07-12T03:15:25;1.90;;;1.90;;
56405;SDS011;42305;51.444;-2.584;2022-07-12T03:17:53;2.20;;;2.20;;
56405;SDS011;42305;51.444;-2.584;2022-07-12T03:20:19;1.73;;;1.73;;
56405;SDS011;42305;51.444;-2.584;2022-07-12T03:22:45;2.00;;;2.00;;
56405;SDS011;42305;51.444;-2.584;2022-07-12T03:25:13;1.50;;;1.50;;
56405;SDS011;42305;51.444;-2.584;2022-07-12T03:27:40;1.95;;;1.95;;
56405;SDS011;42305;51.444;-2.584;2022-07-12T03:30:06;2.10;;;2.10;;
56405;SDS011;42305;51.444;-2.584;2022-07-12T03:32:33;1.90;;;1.90;;
56405;SDS011;42305;51.444;-2.584;2022-07-12T03:34:59;2.13;;;2.13;;
56405;SDS011;42305;51.444;-2.584;2022-07-12T03:37:27;2.20;;;2.20;;
56405;SDS011;42305;51.444;-2.584;2022-07-12T03:39:53;2.05;;;2.05;;
56405;SDS011;42305;51.444;-2.584;2022-07-12T03:42:19;2.30;;;2.30;;
56405;SDS011;42305;51.444;-2.584;2022-07-12T03:44:46;2.00;;;2.00;;
56405;SDS011;42305;51.444;-2.584;2022-07-12T03:47:12;2.80;;;2.80;;
56405;SDS011;42305;51.444;-2.584;2022-07-12T03:49:38;1.90;;;1.90;;
56405;SDS011;42305;51.444;-2.584;2022-07-12T03:52:04;2.05;;;2.05;;
56405;SDS011;42305;51.444;-2.584;2022-07-12T03:54:30;1.88;;;1.88;;
56405;SDS011;42305;51.444;-2.584;2022-07-12T03:56:56;1.80;;;1.80;;
56405;SDS011;42305;51.444;-2.584;2022-07-12T03:59:44;2.10;;;2.10;;
56405;SDS011;42305;51.444;-2.584;2022-07-12T04:02:10;2.10;;;2.10;;
56405;SDS011;42305;51.444;-2.584;2022-07-12T04:04:36;2.30;;;2.30;;
56405;SDS011;42305;51.444;-2.584;2022-07-12T04:07:02;1.90;;;1.90;;
56405;SDS011;42305;51.444;-2.584;2022-07-12T04:09:29;1.73;;;1.73;;
56405;SDS011;42305;51.444;-2.584;2022-07-12T04:11:55;2.65;;;2.65;;
56405;SDS011;42305;51.444;-2.584;2022-07-12T04:14:21;2.30;;;2.30;;
56405;SDS011;42305;51.444;-2.584;2022-07-12T04:16:47;3.55;;;3.45;;
56405;SDS011;42305;51.444;-2.584;2022-07-12T04:19:13;2.10;;;2.10;;
56405;SDS011;42305;51.444;-2.584;2022-07-12T04:21:39;1.70;;;1.70;;
56405;SDS011;42305;51.444;-2.584;2022-07-12T04:24:05;3.17;;;2.97;;
56405;SDS011;42305;51.444;-2.584;2022-07-12T04:26:32;2.35;;;2.35;;
56405;SDS011;42305;51.444;-2.584;2022-07-12T04:28:58;1.90;;;1.90;;
56405;SDS011;42305;51.444;-2.584;2022-07-12T04:31:24;2.08;;;2.08;;
56405;SDS011;42305;51.444;-2.584;2022-07-12T04:33:51;2.00;;;2.00;;
56405;SDS011;42305;51.444;-2.584;2022-07-12T04:36:17;2.45;;;2.45;;
56405;SDS011;42305;51.444;-2.584;2022-07-12T04:38:43;2.22;;;2.22;;
56405;SDS011;42305;51.444;-2.584;2022-07-12T04:41:09;2.40;;;2.40;;
56405;SDS011;42305;51.444;-2.584;2022-07-12T04:43:35;1.90;;;1.90;;
56405;SDS011;42305;51.444;-2.584;2022-07-12T04:46:05;3.33;;;3.15;;
56405;SDS011;42305;51.444;-2.584;2022-07-12T04:48:31;1.90;;;1.90;;
56405;SDS011;42305;51.444;-2.584;2022-07-12T04:50:57;1.80;;;1.80;;
56405;SDS011;42305;51.444;-2.584;2022-07-12T04:53:23;1.70;;;1.70;;
56405;SDS011;42305;51.444;-2.584;2022-07-12T04:55:50;1.67;;;1.67;;
56405;SDS011;42305;51.444;-2.584;2022-07-12T04:58:16;1.90;;;1.90;;
56405;SDS011;42305;51.444;-2.584;2022-07-12T05:00:43;1.90;;;1.90;;
56405;SDS011;42305;51.444;-2.584;2022-07-12T05:03:09;2.25;;;2.25;;
56405;SDS011;42305;51.444;-2.584;2022-07-12T05:05:35;2.10;;;2.10;;
56405;SDS011;42305;51.444;-2.584;2022-07-12T05:08:01;1.80;;;1.80;;
56405;SDS011;42305;51.444;-2.584;2022-07-12T05:10:27;2.10;;;2.10;;
56405;SDS011;42305;51.444;-2.584;2022-07-12T05:12:53;1.80;;;1.80;;
56405;SDS011;42305;51.444;-2.584;2022-07-12T05:15:19;1.70;;;1.70;;
56405;SDS011;42305;51.444;-2.584;2022-07-12T05:17:45;2.00;;;2.00;;
56405;SDS011;42305;51.444;-2.584;2022-07-12T05:20:11;1.90;;;1.90;;
56405;SDS011;42305;51.444;-2.584;2022-07-12T05:22:37;1.90;;;1.90;;
56405;SDS011;42305;51.444;-2.584;2022-07-12T05:25:03;2.00;;;2.00;;
56405;SDS011;42305;51.444;-2.584;2022-07-12T05:27:30;1.85;;;1.85;;
56405;SDS011;42305;51.444;-2.584;2022-07-12T05:29:56;1.90;;;1.90;;
56405;SDS011;42305;51.444;-2.584;2022-07-12T05:32:22;1.70;;;1.70;;
56405;SDS011;42305;51.444;-2.584;2022-07-12T05:34:49;1.80;;;1.80;;
56405;SDS011;42305;51.444;-2.584;2022-07-12T05:37:16;1.70;;;1.70;;
56405;SDS011;42305;51.444;-2.584;2022-07-12T05:39:42;1.83;;;1.83;;
56405;SDS011;42305;51.444;-2.584;2022-07-12T05:42:08;1.70;;;1.70;;
56405;SDS011;42305;51.444;-2.584;2022-07-12T05:44:34;1.50;;;1.50;;
56405;SDS011;42305;51.444;-2.584;2022-07-12T05:47:00;2.08;;;2.08;;
56405;SDS011;42305;51.444;-2.584;2022-07-12T05:49:27;2.00;;;2.00;;
56405;SDS011;42305;51.444;-2.584;2022-07-12T05:51:53;1.98;;;1.98;;
56405;SDS011;42305;51.444;-2.584;2022-07-12T05:54:37;1.50;;;1.50;;
56405;SDS011;42305;51.444;-2.584;2022-07-12T05:57:04;1.60;;;1.60;;
56405;SDS011;42305;51.444;-2.584;2022-07-12T05:59:30;1.75;;;1.75;;
56405;SDS011;42305;51.444;-2.584;2022-07-12T06:01:56;1.90;;;1.90;;
56405;SDS011;42305;51.444;-2.584;2022-07-12T06:04:22;1.50;;;1.50;;
56405;SDS011;42305;51.444;-2.584;2022-07-12T06:06:49;1.60;;;1.60;;
56405;SDS011;42305;51.444;-2.584;2022-07-12T06:09:15;1.50;;;1.50;;
56405;SDS011;42305;51.444;-2.584;2022-07-12T06:11:41;1.48;;;1.48;;
56405;SDS011;42305;51.444;-2.584;2022-07-12T06:14:07;1.50;;;1.50;;
56405;SDS011;42305;51.444;-2.584;2022-07-12T06:16:34;1.70;;;1.70;;
56405;SDS011;42305;51.444;-2.584;2022-07-12T06:19:00;1.42;;;1.42;;
56405;SDS011;42305;51.444;-2.584;2022-07-12T06:21:26;1.50;;;1.50;;
56405;SDS011;42305;51.444;-2.584;2022-07-12T06:23:52;1.40;;;1.40;;
56405;SDS011;42305;51.444;-2.584;2022-07-12T06:26:19;1.60;;;1.60;;
56405;SDS011;42305;51.444;-2.584;2022-07-12T06:28:45;1.83;;;1.83;;
56405;SDS011;42305;51.444;-2.584;2022-07-12T06:31:11;1.70;;;1.70;;
56405;SDS011;42305;51.444;-2.584;2022-07-12T06:33:37;1.50;;;1.50;;
56405;SDS011;42305;51.444;-2.584;2022-07-12T06:36:04;1.50;;;1.50;;
56405;SDS011;42305;51.444;-2.584;2022-07-12T06:38:30;1.50;;;1.50;;
56405;SDS011;42305;51.444;-2.584;2022-07-12T06:40:56;1.40;;;1.40;;
56405;SDS011;42305;51.444;-2.584;2022-07-12T06:43:22;1.40;;;1.40;;
56405;SDS011;42305;51.444;-2.584;2022-07-12T06:45:49;1.50;;;1.50;;
56405;SDS011;42305;51.444;-2.584;2022-07-12T06:48:15;1.40;;;1.40;;
56405;SDS011;42305;51.444;-2.584;2022-07-12T06:50:41;1.70;;;1.70;;
56405;SDS011;42305;51.444;-2.584;2022-07-12T06:53:09;1.50;;;1.50;;
56405;SDS011;42305;51.444;-2.584;2022-07-12T06:55:36;1.35;;;1.35;;
56405;SDS011;42305;51.444;-2.584;2022-07-12T06:58:02;2.00;;;2.00;;
56405;SDS011;42305;51.444;-2.584;2022-07-12T07:00:31;1.40;;;1.40;;
56405;SDS011;42305;51.444;-2.584;2022-07-12T07:02:57;1.60;;;1.60;;
56405;SDS011;42305;51.444;-2.584;2022-07-12T07:05:23;1.40;;;1.40;;
56405;SDS011;42305;51.444;-2.584;2022-07-12T07:07:49;1.20;;;1.20;;
56405;SDS011;42305;51.444;-2.584;2022-07-12T07:10:15;1.20;;;1.20;;
56405;SDS011;42305;51.444;-2.584;2022-07-12T07:12:41;1.10;;;1.10;;
56405;SDS011;42305;51.444;-2.584;2022-07-12T07:15:08;1.20;;;1.20;;
56405;SDS011;42305;51.444;-2.584;2022-07-12T07:20:21;1.20;;;1.20;;
56405;SDS011;42305;51.444;-2.584;2022-07-12T07:22:47;1.10;;;1.10;;
56405;SDS011;42305;51.444;-2.584;2022-07-12T07:25:13;1.10;;;1.10;;
56405;SDS011;42305;51.444;-2.584;2022-07-12T07:30:25;1.08;;;1.08;;
56405;SDS011;42305;51.444;-2.584;2022-07-12T07:33:10;1.30;;;1.30;;
56405;SDS011;42305;51.444;-2.584;2022-07-12T07:35:37;1.75;;;1.65;;
56405;SDS011;42305;51.444;-2.584;2022-07-12T07:38:03;1.13;;;1.13;;
56405;SDS011;42305;51.444;-2.584;2022-07-12T07:40:29;1.00;;;1.00;;
56405;SDS011;42305;51.444;-2.584;2022-07-12T07:42:55;1.20;;;1.20;;
56405;SDS011;42305;51.444;-2.584;2022-07-12T07:45:21;1.05;;;1.05;;
56405;SDS011;42305;51.444;-2.584;2022-07-12T07:47:48;1.10;;;1.10;;
56405;SDS011;42305;51.444;-2.584;2022-07-12T07:50:14;1.20;;;1.20;;
56405;SDS011;42305;51.444;-2.584;2022-07-12T07:52:41;1.20;;;1.20;;
56405;SDS011;42305;51.444;-2.584;2022-07-12T07:55:07;1.30;;;1.30;;
56405;SDS011;42305;51.444;-2.584;2022-07-12T07:57:33;1.20;;;1.20;;
56405;SDS011;42305;51.444;-2.584;2022-07-12T07:59:59;1.20;;;1.20;;
56405;SDS011;42305;51.444;-2.584;2022-07-12T08:02:25;1.10;;;1.10;;
56405;SDS011;42305;51.444;-2.584;2022-07-12T08:04:51;1.00;;;1.00;;
56405;SDS011;42305;51.444;-2.584;2022-07-12T08:07:17;0.90;;;0.90;;
56405;SDS011;42305;51.444;-2.584;2022-07-12T08:09:43;1.10;;;1.10;;
56405;SDS011;42305;51.444;-2.584;2022-07-12T08:12:09;0.90;;;0.90;;
56405;SDS011;42305;51.444;-2.584;2022-07-12T08:14:35;0.90;;;0.90;;
56405;SDS011;42305;51.444;-2.584;2022-07-12T08:17:01;1.10;;;1.10;;
56405;SDS011;42305;51.444;-2.584;2022-07-12T08:19:27;0.90;;;0.90;;
56405;SDS011;42305;51.444;-2.584;2022-07-12T08:21:53;0.90;;;0.90;;
56405;SDS011;42305;51.444;-2.584;2022-07-12T08:24:20;1.00;;;1.00;;
56405;SDS011;42305;51.444;-2.584;2022-07-12T08:26:46;1.00;;;1.00;;
56405;SDS011;42305;51.444;-2.584;2022-07-12T08:29:12;1.00;;;1.00;;
56405;SDS011;42305;51.444;-2.584;2022-07-12T08:31:38;1.00;;;1.00;;
56405;SDS011;42305;51.444;-2.584;2022-07-12T08:34:04;0.80;;;0.80;;
56405;SDS011;42305;51.444;-2.584;2022-07-12T08:36:30;0.90;;;0.90;;
56405;SDS011;42305;51.444;-2.584;2022-07-12T08:38:56;0.80;;;0.80;;
56405;SDS011;42305;51.444;-2.584;2022-07-12T08:41:22;0.70;;;0.70;;
56405;SDS011;42305;51.444;-2.584;2022-07-12T08:43:48;0.77;;;0.77;;
56405;SDS011;42305;51.444;-2.584;2022-07-12T08:46:14;1.23;;;1.23;;
56405;SDS011;42305;51.444;-2.584;2022-07-12T08:48:41;0.70;;;0.70;;
56405;SDS011;42305;51.444;-2.584;2022-07-12T08:51:11;1.42;;;1.42;;
56405;SDS011;42305;51.444;-2.584;2022-07-12T08:53:38;1.00;;;1.00;;
56405;SDS011;42305;51.444;-2.584;2022-07-12T08:56:04;0.90;;;0.90;;
56405;SDS011;42305;51.444;-2.584;2022-07-12T08:58:30;0.90;;;0.90;;
56405;SDS011;42305;51.444;-2.584;2022-07-12T09:00:56;0.70;;;0.70;;
56405;SDS011;42305;51.444;-2.584;2022-07-12T09:03:22;0.70;;;0.70;;
56405;SDS011;42305;51.444;-2.584;2022-07-12T09:05:50;0.80;;;0.80;;
56405;SDS011;42305;51.444;-2.584;2022-07-12T09:08:16;0.80;;;0.80;;
56405;SDS011;42305;51.444;-2.584;2022-07-12T09:10:53;0.65;;;0.65;;
56405;SDS011;42305;51.444;-2.584;2022-07-12T09:13:20;0.70;;;0.70;;
56405;SDS011;42305;51.444;-2.584;2022-07-12T09:15:46;0.70;;;0.70;;
56405;SDS011;42305;51.444;-2.584;2022-07-12T09:18:13;0.70;;;0.70;;
56405;SDS011;42305;51.444;-2.584;2022-07-12T09:20:51;0.77;;;0.77;;
56405;SDS011;42305;51.444;-2.584;2022-07-12T09:23:18;1.00;;;1.00;;
56405;SDS011;42305;51.444;-2.584;2022-07-12T09:25:44;1.65;;;1.65;;
56405;SDS011;42305;51.444;-2.584;2022-07-12T09:28:11;1.75;;;1.42;;
56405;SDS011;42305;51.444;-2.584;2022-07-12T09:30:46;0.85;;;0.85;;
56405;SDS011;42305;51.444;-2.584;2022-07-12T09:33:12;0.60;;;0.60;;
56405;SDS011;42305;51.444;-2.584;2022-07-12T09:38:31;0.70;;;0.70;;
56405;SDS011;42305;51.444;-2.584;2022-07-12T09:40:58;0.70;;;0.70;;
56405;SDS011;42305;51.444;-2.584;2022-07-12T09:43:25;0.70;;;0.70;;
56405;SDS011;42305;51.444;-2.584;2022-07-12T09:45:51;0.55;;;0.55;;
56405;SDS011;42305;51.444;-2.584;2022-07-12T09:48:20;0.40;;;0.40;;
56405;SDS011;42305;51.444;-2.584;2022-07-12T09:50:47;0.60;;;0.60;;
56405;SDS011;42305;51.444;-2.584;2022-07-12T09:53:21;0.70;;;0.70;;
56405;SDS011;42305;51.444;-2.584;2022-07-12T09:55:48;0.85;;;0.85;;
56405;SDS011;42305;51.444;-2.584;2022-07-12T09:58:16;0.70;;;0.70;;
56405;SDS011;42305;51.444;-2.584;2022-07-12T10:00:43;0.50;;;0.50;;
56405;SDS011;42305;51.444;-2.584;2022-07-12T10:03:09;0.60;;;0.60;;
56405;SDS011;42305;51.444;-2.584;2022-07-12T10:05:38;0.80;;;0.80;;
56405;SDS011;42305;51.444;-2.584;2022-07-12T10:08:06;0.60;;;0.60;;
56405;SDS011;42305;51.444;-2.584;2022-07-12T10:10:32;0.60;;;0.60;;
56405;SDS011;42305;51.444;-2.584;2022-07-12T10:12:59;0.40;;;0.40;;
56405;SDS011;42305;51.444;-2.584;2022-07-12T10:15:25;0.50;;;0.50;;
56405;SDS011;42305;51.444;-2.584;2022-07-12T10:17:53;0.63;;;0.63;;
56405;SDS011;42305;51.444;-2.584;2022-07-12T10:20:20;0.50;;;0.50;;
56405;SDS011;42305;51.444;-2.584;2022-07-12T10:22:55;0.50;;;0.50;;
56405;SDS011;42305;51.444;-2.584;2022-07-12T10:25:28;0.70;;;0.70;;
56405;SDS011;42305;51.444;-2.584;2022-07-12T10:27:55;0.75;;;0.75;;
56405;SDS011;42305;51.444;-2.584;2022-07-12T10:30:23;9.48;;;1.15;;
56405;SDS011;42305;51.444;-2.584;2022-07-12T10:32:50;0.60;;;0.60;;
56405;SDS011;42305;51.444;-2.584;2022-07-12T10:35:19;0.60;;;0.60;;
56405;SDS011;42305;51.444;-2.584;2022-07-12T10:40:33;0.65;;;0.65;;
56405;SDS011;42305;51.444;-2.584;2022-07-12T10:45:33;0.60;;;0.60;;
56405;SDS011;42305;51.444;-2.584;2022-07-12T10:48:02;0.60;;;0.60;;
56405;SDS011;42305;51.444;-2.584;2022-07-12T10:58:34;0.52;;;0.52;;
56405;SDS011;42305;51.444;-2.584;2022-07-12T11:01:05;0.50;;;0.50;;
56405;SDS011;42305;51.444;-2.584;2022-07-12T11:03:32;0.50;;;0.50;;
56405;SDS011;42305;51.444;-2.584;2022-07-12T11:06:02;0.50;;;0.50;;
56405;SDS011;42305;51.444;-2.584;2022-07-12T11:08:31;0.50;;;0.50;;
56405;SDS011;42305;51.444;-2.584;2022-07-12T11:10:59;0.50;;;0.50;;
56405;SDS011;42305;51.444;-2.584;2022-07-12T11:13:25;0.60;;;0.60;;
56405;SDS011;42305;51.444;-2.584;2022-07-12T11:15:56;0.40;;;0.40;;
56405;SDS011;42305;51.444;-2.584;2022-07-12T11:18:31;0.50;;;0.50;;
56405;SDS011;42305;51.444;-2.584;2022-07-12T11:20:58;0.60;;;0.60;;
56405;SDS011;42305;51.444;-2.584;2022-07-12T11:23:24;0.40;;;0.40;;
56405;SDS011;42305;51.444;-2.584;2022-07-12T11:25:54;0.60;;;0.60;;
56405;SDS011;42305;51.444;-2.584;2022-07-12T11:28:20;0.40;;;0.40;;
56405;SDS011;42305;51.444;-2.584;2022-07-12T11:30:53;0.30;;;0.30;;
56405;SDS011;42305;51.444;-2.584;2022-07-12T11:33:25;0.40;;;0.40;;
56405;SDS011;42305;51.444;-2.584;2022-07-12T11:35:51;0.40;;;0.40;;
56405;SDS011;42305;51.444;-2.584;2022-07-12T11:38:27;0.40;;;0.40;;
56405;SDS011;42305;51.444;-2.584;2022-07-12T11:40:54;0.40;;;0.40;;
56405;SDS011;42305;51.444;-2.584;2022-07-12T11:43:21;0.47;;;0.47;;
56405;SDS011;42305;51.444;-2.584;2022-07-12T11:45:48;0.40;;;0.40;;
56405;SDS011;42305;51.444;-2.584;2022-07-12T11:48:14;0.40;;;0.40;;
56405;SDS011;42305;51.444;-2.584;2022-07-12T11:50:43;0.32;;;0.32;;
56405;SDS011;42305;51.444;-2.584;2022-07-12T11:53:31;0.57;;;0.57;;
56405;SDS011;42305;51.444;-2.584;2022-07-12T11:55:56;0.28;;;0.28;;
56405;SDS011;42305;51.444;-2.584;2022-07-12T11:58:23;0.30;;;0.30;;
56405;SDS011;42305;51.444;-2.584;2022-07-12T12:00:50;0.20;;;0.20;;
56405;SDS011;42305;51.444;-2.584;2022-07-12T12:03:16;0.10;;;0.10;;
56405;SDS011;42305;51.444;-2.584;2022-07-12T12:05:43;0.10;;;0.10;;
56405;SDS011;42305;51.444;-2.584;2022-07-12T12:08:10;0.10;;;0.10;;
56405;SDS011;42305;51.444;-2.584;2022-07-12T12:10:37;0.20;;;0.20;;
56405;SDS011;42305;51.444;-2.584;2022-07-12T12:13:04;0.20;;;0.20;;
56405;SDS011;42305;51.444;-2.584;2022-07-12T12:15:30;0.52;;;0.52;;
56405;SDS011;42305;51.444;-2.584;2022-07-12T12:17:58;0.30;;;0.30;;
56405;SDS011;42305;51.444;-2.584;2022-07-12T12:20:25;0.40;;;0.40;;
56405;SDS011;42305;51.444;-2.584;2022-07-12T12:22:52;0.40;;;0.40;;
56405;SDS011;42305;51.444;-2.584;2022-07-12T12:25:19;0.40;;;0.40;;
56405;SDS011;42305;51.444;-2.584;2022-07-12T12:27:46;1.20;;;0.60;;
56405;SDS011;42305;51.444;-2.584;2022-07-12T12:30:13;0.43;;;0.43;;
56405;SDS011;42305;51.444;-2.584;2022-07-12T12:32:46;0.40;;;0.40;;
56405;SDS011;42305;51.444;-2.584;2022-07-12T12:35:13;0.40;;;0.40;;
56405;SDS011;42305;51.444;-2.584;2022-07-12T12:37:39;0.45;;;0.45;;
56405;SDS011;42305;51.444;-2.584;2022-07-12T12:40:05;2.92;;;2.70;;
56405;SDS011;42305;51.444;-2.584;2022-07-12T12:42:32;0.40;;;0.40;;
56405;SDS011;42305;51.444;-2.584;2022-07-12T12:44:58;0.40;;;0.40;;
56405;SDS011;42305;51.444;-2.584;2022-07-12T12:47:24;0.40;;;0.40;;
56405;SDS011;42305;51.444;-2.584;2022-07-12T12:49:56;0.30;;;0.30;;
56405;SDS011;42305;51.444;-2.584;2022-07-12T12:52:25;0.30;;;0.30;;
56405;SDS011;42305;51.444;-2.584;2022-07-12T12:54:52;0.30;;;0.30;;
56405;SDS011;42305;51.444;-2.584;2022-07-12T12:57:18;0.30;;;0.30;;
56405;SDS011;42305;51.444;-2.584;2022-07-12T12:59:44;0.22;;;0.22;;
56405;SDS011;42305;51.444;-2.584;2022-07-12T13:02:11;0.15;;;0.15;;
56405;SDS011;42305;51.444;-2.584;2022-07-12T13:04:37;3.08;;;2.88;;
56405;SDS011;42305;51.444;-2.584;2022-07-12T13:07:04;0.30;;;0.30;;
56405;SDS011;42305;51.444;-2.584;2022-07-12T13:09:31;0.50;;;0.50;;
56405;SDS011;42305;51.444;-2.584;2022-07-12T13:11:58;0.20;;;0.20;;
56405;SDS011;42305;51.444;-2.584;2022-07-12T13:14:24;0.15;;;0.15;;
56405;SDS011;42305;51.444;-2.584;2022-07-12T13:16:50;0.20;;;0.20;;
56405;SDS011;42305;51.444;-2.584;2022-07-12T13:19:16;0.15;;;0.15;;
56405;SDS011;42305;51.444;-2.584;2022-07-12T13:21:42;0.20;;;0.20;;
56405;SDS011;42305;51.444;-2.584;2022-07-12T13:24:08;0.25;;;0.25;;
56405;SDS011;42305;51.444;-2.584;2022-07-12T13:26:34;2.28;;;0.88;;
56405;SDS011;42305;51.444;-2.584;2022-07-12T13:29:02;0.40;;;0.40;;
56405;SDS011;42305;51.444;-2.584;2022-07-12T13:31:28;0.22;;;0.22;;
56405;SDS011;42305;51.444;-2.584;2022-07-12T13:33:54;0.30;;;0.30;;
56405;SDS011;42305;51.444;-2.584;2022-07-12T13:36:21;0.15;;;0.15;;
56405;SDS011;42305;51.444;-2.584;2022-07-12T13:38:48;0.10;;;0.10;;
56405;SDS011;42305;51.444;-2.584;2022-07-12T13:41:14;0.10;;;0.10;;
56405;SDS011;42305;51.444;-2.584;2022-07-12T13:43:40;0.30;;;0.30;;
56405;SDS011;42305;51.444;-2.584;2022-07-12T13:46:06;0.10;;;0.10;;
56405;SDS011;42305;51.444;-2.584;2022-07-12T13:48:32;0.22;;;0.22;;
56405;SDS011;42305;51.444;-2.584;2022-07-12T13:51:01;0.10;;;0.10;;
56405;SDS011;42305;51.444;-2.584;2022-07-12T13:53:27;0.30;;;0.30;;
56405;SDS011;42305;51.444;-2.584;2022-07-12T13:55:53;0.10;;;0.10;;
56405;SDS011;42305;51.444;-2.584;2022-07-12T13:58:19;1.00;;;0.82;;
56405;SDS011;42305;51.444;-2.584;2022-07-12T14:00:45;0.10;;;0.10;;
56405;SDS011;42305;51.444;-2.584;2022-07-12T14:03:11;0.22;;;0.22;;
56405;SDS011;42305;51.444;-2.584;2022-07-12T14:05:37;0.20;;;0.20;;
56405;SDS011;42305;51.444;-2.584;2022-07-12T14:08:04;0.30;;;0.30;;
56405;SDS011;42305;51.444;-2.584;2022-07-12T14:10:30;0.20;;;0.20;;
56405;SDS011;42305;51.444;-2.584;2022-07-12T14:12:58;0.40;;;0.40;;
56405;SDS011;42305;51.444;-2.584;2022-07-12T14:15:24;0.55;;;0.55;;
56405;SDS011;42305;51.444;-2.584;2022-07-12T14:18:05;0.30;;;0.30;;
56405;SDS011;42305;51.444;-2.584;2022-07-12T14:20:33;0.32;;;0.32;;
56405;SDS011;42305;51.444;-2.584;2022-07-12T14:22:59;0.50;;;0.50;;
56405;SDS011;42305;51.444;-2.584;2022-07-12T14:25:25;0.38;;;0.38;;
56405;SDS011;42305;51.444;-2.584;2022-07-12T14:27:51;0.60;;;0.60;;
56405;SDS011;42305;51.444;-2.584;2022-07-12T14:30:17;0.60;;;0.57;;
56405;SDS011;42305;51.444;-2.584;2022-07-12T14:32:43;0.50;;;0.50;;
56405;SDS011;42305;51.444;-2.584;2022-07-12T14:35:09;0.55;;;0.55;;
56405;SDS011;42305;51.444;-2.584;2022-07-12T14:37:36;0.60;;;0.60;;
56405;SDS011;42305;51.444;-2.584;2022-07-12T14:40:03;0.50;;;0.50;;
56405;SDS011;42305;51.444;-2.584;2022-07-12T14:42:29;0.60;;;0.60;;
56405;SDS011;42305;51.444;-2.584;2022-07-12T14:44:55;0.50;;;0.50;;
56405;SDS011;42305;51.444;-2.584;2022-07-12T14:50:06;0.60;;;0.60;;
56405;SDS011;42305;51.444;-2.584;2022-07-12T14:52:32;0.80;;;0.80;;
56405;SDS011;42305;51.444;-2.584;2022-07-12T14:54:58;0.70;;;0.70;;
56405;SDS011;42305;51.444;-2.584;2022-07-12T14:57:24;0.60;;;0.60;;
56405;SDS011;42305;51.444;-2.584;2022-07-12T14:59:50;0.90;;;0.90;;